createdAt,value
2022-09-13T00:00:59.518Z,8.43
2022-09-13T00:03:38.950Z,6.00
2022-09-13T00:08:39.105Z,8.30
2022-09-13T00:11:07.521Z,7.97
2022-09-13T00:16:05.432Z,9.10
2022-09-13T00:18:34.681Z,8.70
2022-09-13T00:21:10.519Z,10.18
2022-09-13T00:23:39.365Z,9.25
2022-09-13T00:26:08.979Z,9.83
2022-09-13T00:28:37.175Z,8.95
2022-09-13T00:31:07.978Z,11.73
2022-09-13T00:33:36.538Z,8.55
2022-09-13T00:36:06.456Z,7.50
2022-09-13T00:38:38.193Z,9.38
2022-09-13T00:41:09.084Z,15.02
2022-09-13T00:43:50.404Z,7.07
2022-09-13T00:46:26.083Z,6.93
2022-09-13T00:48:58.394Z,7.88
2022-09-13T00:51:27.996Z,6.65
2022-09-13T00:53:59.614Z,9.43
2022-09-13T00:56:34.234Z,6.72
2022-09-13T00:59:06.381Z,7.15
2022-09-13T01:01:39.909Z,7.78
2022-09-13T01:04:12.487Z,7.82
2022-09-13T01:06:43.207Z,7.32
2022-09-13T01:11:50.598Z,5.60
2022-09-13T01:14:20.702Z,7.05
2022-09-13T01:16:49.180Z,8.02
2022-09-13T01:19:18.113Z,5.83
2022-09-13T01:22:19.911Z,6.47
2022-09-13T01:25:12.352Z,5.53
2022-09-13T01:28:02.895Z,4.60
2022-09-13T01:30:37.939Z,5.65
2022-09-13T01:33:28.854Z,8.13
2022-09-13T01:36:21.579Z,7.40
2022-09-13T01:38:59.507Z,13.02
2022-09-13T01:41:49.349Z,5.95
2022-09-13T01:44:31.299Z,6.82
2022-09-13T01:47:07.339Z,6.45
2022-09-13T01:49:44.809Z,7.45
2022-09-13T01:52:22.779Z,5.45
2022-09-13T01:54:58.333Z,5.82
2022-09-13T01:57:32.928Z,5.90
2022-09-13T02:00:05.512Z,5.93
2022-09-13T02:02:40.076Z,5.40
2022-09-13T02:05:14.624Z,7.05
2022-09-13T02:07:47.096Z,5.65
2022-09-13T02:10:21.697Z,4.82
2022-09-13T02:12:52.191Z,9.27
2022-09-13T02:15:25.563Z,6.13
2022-09-13T02:18:03.327Z,7.20
2022-09-13T02:20:35.060Z,6.43
2022-09-13T02:23:08.764Z,4.35
2022-09-13T02:25:40.460Z,4.35
2022-09-13T02:28:13.007Z,6.90
2022-09-13T02:31:33.862Z,5.20
2022-09-13T02:34:07.207Z,5.13
2022-09-13T02:36:40.684Z,4.65
2022-09-13T02:39:13.322Z,6.35
2022-09-13T02:41:49.500Z,9.00
2022-09-13T02:44:27.185Z,6.07
2022-09-13T02:47:13.145Z,3.80
2022-09-13T02:49:54.287Z,5.97
2022-09-13T02:52:34.244Z,4.65
2022-09-13T02:55:13.651Z,6.38
2022-09-13T02:57:50.241Z,10.35
2022-09-13T03:00:18.692Z,5.05
2022-09-13T03:02:50.212Z,4.88
2022-09-13T03:05:19.783Z,5.85
2022-09-13T03:07:48.644Z,3.88
2022-09-13T03:10:17.359Z,4.53
2022-09-13T03:13:15.388Z,3.78
2022-09-13T03:15:55.501Z,6.38
2022-09-13T03:18:38.861Z,4.32
2022-09-13T03:21:18.739Z,7.93
2022-09-13T03:23:55.993Z,5.43
2022-09-13T03:27:02.764Z,4.80
2022-09-13T03:29:41.152Z,5.13
2022-09-13T03:32:22.078Z,4.35
2022-09-13T03:34:59.276Z,3.78
2022-09-13T03:37:36.496Z,3.92
2022-09-13T03:40:11.225Z,4.13
2022-09-13T03:42:45.134Z,3.60
2022-09-13T03:45:15.864Z,5.88
2022-09-13T03:47:46.909Z,5.00
2022-09-13T03:50:19.397Z,11.43
2022-09-13T03:52:52.955Z,7.90
2022-09-13T03:55:22.354Z,7.93
2022-09-13T03:57:50.715Z,6.28
2022-09-13T04:00:19.799Z,7.10
2022-09-13T04:02:48.034Z,7.78
2022-09-13T04:05:16.372Z,9.40
2022-09-13T04:07:44.452Z,5.20
2022-09-13T04:10:14.301Z,5.40
2022-09-13T04:12:42.653Z,7.15
2022-09-13T04:15:11.342Z,11.10
2022-09-13T04:17:39.555Z,7.63
2022-09-13T04:20:08.594Z,5.03
2022-09-13T04:22:36.793Z,4.70
2022-09-13T04:25:05.919Z,4.65
2022-09-13T04:27:36.752Z,7.43
2022-09-13T04:30:05.374Z,3.40
2022-09-13T04:32:33.858Z,7.20
2022-09-13T04:35:02.327Z,8.10
2022-09-13T04:37:30.415Z,6.57
2022-09-13T04:39:58.851Z,10.20
2022-09-13T04:42:27.310Z,5.35
2022-09-13T04:44:56.770Z,5.45
2022-09-13T04:47:25.195Z,7.03
2022-09-13T04:49:53.508Z,11.05
2022-09-13T04:52:21.936Z,7.80
2022-09-13T04:54:50.219Z,7.53
2022-09-13T04:57:18.562Z,7.07
2022-09-13T04:59:46.604Z,8.88
2022-09-13T05:02:16.123Z,9.20
2022-09-13T05:04:44.637Z,7.35
2022-09-13T05:07:12.804Z,8.65
2022-09-13T05:09:41.004Z,7.20
2022-09-13T05:12:09.571Z,11.40
2022-09-13T05:14:40.388Z,8.77
2022-09-13T05:17:08.634Z,11.55
2022-09-13T05:19:38.341Z,7.32
2022-09-13T05:22:06.383Z,13.63
2022-09-13T05:24:34.566Z,15.60
2022-09-13T05:27:02.881Z,10.90
2022-09-13T05:29:30.985Z,11.48
2022-09-13T05:31:59.184Z,12.70
2022-09-13T05:34:27.945Z,22.95
2022-09-13T05:36:57.424Z,10.88
2022-09-13T05:39:34.027Z,9.88
2022-09-13T05:42:12.161Z,15.50
2022-09-13T05:44:40.301Z,24.00
2022-09-13T05:47:08.389Z,23.63
2022-09-13T05:49:45.957Z,26.83
2022-09-13T05:52:25.161Z,17.52
2022-09-13T05:54:53.673Z,12.13
2022-09-13T05:57:21.754Z,15.35
2022-09-13T05:59:49.896Z,10.07
2022-09-13T06:02:18.206Z,8.48
2022-09-13T06:04:46.834Z,11.48
2022-09-13T06:07:14.963Z,5.87
2022-09-13T06:09:45.346Z,3.15
2022-09-13T06:12:13.603Z,2.97
2022-09-13T06:14:42.005Z,3.05
2022-09-13T06:17:10.449Z,2.33
2022-09-13T06:19:39.828Z,4.43
2022-09-13T06:24:38.465Z,3.28
2022-09-13T06:27:08.027Z,3.30
2022-09-13T06:29:36.110Z,4.00
2022-09-13T06:32:04.808Z,5.55
2022-09-13T06:34:33.913Z,2.87
2022-09-13T06:37:05.205Z,3.78
2022-09-13T06:39:34.374Z,3.40
2022-09-13T06:42:02.530Z,2.90
2022-09-13T06:44:32.166Z,4.43
2022-09-13T06:47:00.663Z,5.55
2022-09-13T06:49:31.662Z,3.40
2022-09-13T06:52:00.491Z,3.75
2022-09-13T06:54:29.208Z,2.47
2022-09-13T06:56:57.357Z,2.97
2022-09-13T06:59:25.490Z,3.35
2022-09-13T07:01:55.199Z,3.63
2022-09-13T07:04:23.748Z,3.72
2022-09-13T07:06:52.462Z,2.77
2022-09-13T07:09:22.830Z,5.20
2022-09-13T07:11:53.289Z,4.13
2022-09-13T07:14:23.509Z,7.90
2022-09-13T07:16:52.373Z,9.40
2022-09-13T07:19:24.084Z,7.78
2022-09-13T07:21:52.536Z,9.23
2022-09-13T07:24:22.040Z,13.80
2022-09-13T07:26:51.024Z,8.35
2022-09-13T07:29:22.826Z,5.90
2022-09-13T07:31:53.078Z,3.97
2022-09-13T07:34:24.601Z,3.38
2022-09-13T07:36:53.776Z,3.72
2022-09-13T07:39:23.229Z,7.05
2022-09-13T07:41:54.089Z,6.95
2022-09-13T07:44:22.893Z,3.88
2022-09-13T07:46:51.160Z,4.20
2022-09-13T07:49:20.414Z,4.30
2022-09-13T07:51:51.524Z,4.88
2022-09-13T07:54:21.311Z,4.07
2022-09-13T07:56:52.005Z,7.22
2022-09-13T07:59:20.766Z,8.15
2022-09-13T08:01:50.531Z,3.92
2022-09-13T08:04:21.503Z,5.22
2022-09-13T08:06:51.021Z,6.22
2022-09-13T08:09:19.945Z,5.63
2022-09-13T08:11:49.597Z,4.30
2022-09-13T08:14:19.622Z,5.78
2022-09-13T08:16:48.472Z,4.60
2022-09-13T08:19:18.821Z,5.60
2022-09-13T08:21:47.277Z,5.45
2022-09-13T08:24:19.472Z,5.85
2022-09-13T08:26:48.185Z,7.68
2022-09-13T08:29:17.680Z,8.65
2022-09-13T08:31:46.005Z,8.18
2022-09-13T08:34:15.818Z,4.55
2022-09-13T08:36:44.873Z,6.60
2022-09-13T08:39:14.189Z,5.47
2022-09-13T08:44:32.564Z,6.22
2022-09-13T08:47:19.805Z,6.90
2022-09-13T08:49:52.112Z,7.57
2022-09-13T08:52:29.627Z,7.15
2022-09-13T08:54:58.820Z,5.80
2022-09-13T08:57:36.928Z,11.38
2022-09-13T09:00:18.918Z,7.00
2022-09-13T09:03:04.329Z,7.10
2022-09-13T09:05:36.959Z,7.10
2022-09-13T09:08:12.841Z,5.68
2022-09-13T09:10:44.002Z,5.50
2022-09-13T09:13:24.638Z,4.13
2022-09-13T09:15:58.018Z,5.95
2022-09-13T09:18:30.438Z,5.47
2022-09-13T09:21:01.188Z,7.05
2022-09-13T09:23:33.011Z,9.50
2022-09-13T09:26:16.064Z,6.55
2022-09-13T09:28:45.075Z,8.73
2022-09-13T09:31:20.298Z,5.38
2022-09-13T09:34:04.348Z,7.57
2022-09-13T09:36:40.463Z,6.90
2022-09-13T09:39:12.833Z,10.07
2022-09-13T09:41:41.466Z,7.28
2022-09-13T09:44:19.822Z,8.10
2022-09-13T09:46:56.031Z,8.35
2022-09-13T09:49:50.662Z,10.25
2022-09-13T09:52:23.545Z,9.98
2022-09-13T09:54:52.171Z,9.07
2022-09-13T09:57:20.766Z,6.63
2022-09-13T09:59:48.817Z,8.15
2022-09-13T10:02:21.744Z,7.65
2022-09-13T10:04:57.967Z,7.57
2022-09-13T10:07:32.719Z,11.45
2022-09-13T10:10:04.117Z,7.20
2022-09-13T10:12:39.357Z,10.02
2022-09-13T10:15:17.786Z,7.10
2022-09-13T10:18:03.663Z,10.13
2022-09-13T10:20:32.744Z,8.05
2022-09-13T10:23:13.651Z,9.68
2022-09-13T10:25:47.702Z,8.95
2022-09-13T10:28:20.393Z,6.65
2022-09-13T10:30:54.234Z,8.20
2022-09-13T10:33:29.964Z,7.25
2022-09-13T10:36:01.873Z,14.88
2022-09-13T10:38:35.312Z,6.72
2022-09-13T10:41:06.606Z,8.10
2022-09-13T10:43:36.037Z,9.15
2022-09-13T10:46:07.626Z,6.68
2022-09-13T10:48:55.824Z,5.05
2022-09-13T10:51:34.434Z,5.90
2022-09-13T10:54:20.328Z,6.50
2022-09-13T10:56:49.654Z,5.75
2022-09-13T10:59:23.163Z,4.97
2022-09-13T11:02:06.907Z,5.97
2022-09-13T11:04:52.117Z,4.80
2022-09-13T11:07:52.738Z,8.63
2022-09-13T11:10:32.899Z,4.95
2022-09-13T11:13:08.582Z,6.15
2022-09-13T11:15:51.742Z,4.63
2022-09-13T11:18:32.121Z,4.88
2022-09-13T11:21:11.390Z,6.72
2022-09-13T11:23:56.045Z,4.10
2022-09-13T11:26:38.560Z,4.68
2022-09-13T11:29:20.024Z,4.65
2022-09-13T11:31:59.642Z,3.88
2022-09-13T11:34:41.239Z,6.28
2022-09-13T11:37:26.996Z,4.43
2022-09-13T11:40:04.503Z,5.80
2022-09-13T11:42:46.374Z,5.72
2022-09-13T11:45:25.403Z,5.07
2022-09-13T11:48:10.018Z,5.72
2022-09-13T11:50:45.837Z,4.70
2022-09-13T11:53:46.381Z,3.95
2022-09-13T11:56:19.249Z,4.00
2022-09-13T11:58:51.818Z,4.55
2022-09-13T12:01:24.814Z,6.18
2022-09-13T12:04:02.153Z,3.80
2022-09-13T12:06:34.388Z,7.25
2022-09-13T12:09:08.606Z,5.90
2022-09-13T12:11:40.218Z,5.55
2022-09-13T12:14:13.295Z,4.63
2022-09-13T12:16:48.722Z,4.90
2022-09-13T12:19:21.308Z,4.20
2022-09-13T12:21:51.113Z,5.43
2022-09-13T12:24:26.746Z,7.38
2022-09-13T12:27:00.222Z,7.47
2022-09-13T12:29:36.527Z,4.50
2022-09-13T12:32:07.360Z,9.15
2022-09-13T12:34:44.717Z,5.07
2022-09-13T12:37:42.877Z,4.72
2022-09-13T12:40:27.070Z,6.00
2022-09-13T12:43:11.541Z,5.95
2022-09-13T12:46:09.923Z,7.65
2022-09-13T12:49:05.623Z,5.30
2022-09-13T12:51:51.342Z,4.10
2022-09-13T12:54:38.617Z,4.53
2022-09-13T12:57:25.147Z,4.90
2022-09-13T13:00:19.068Z,5.95
2022-09-13T13:02:58.608Z,3.78
2022-09-13T13:05:30.870Z,5.38
2022-09-13T13:08:02.588Z,4.50
2022-09-13T13:10:34.439Z,3.88
2022-09-13T13:13:16.159Z,4.95
2022-09-13T13:16:04.046Z,4.80
2022-09-13T13:18:44.190Z,6.10
2022-09-13T13:21:38.986Z,5.10
2022-09-13T13:24:49.460Z,3.08
2022-09-13T13:27:48.693Z,4.60
2022-09-13T13:33:22.764Z,4.53
2022-09-13T13:35:51.445Z,4.78
2022-09-13T13:38:50.146Z,6.88
2022-09-13T13:41:41.660Z,5.30
2022-09-13T13:45:03.510Z,8.98
2022-09-13T13:48:12.204Z,4.97
2022-09-13T13:51:17.564Z,7.97
2022-09-13T13:53:50.321Z,9.55
2022-09-13T13:56:30.270Z,7.13
2022-09-13T13:59:05.017Z,7.82
2022-09-13T14:01:37.678Z,6.93
2022-09-13T14:04:44.280Z,9.00
2022-09-13T14:07:30.011Z,6.88
2022-09-13T14:10:04.359Z,8.27
2022-09-13T14:12:57.574Z,6.75
2022-09-13T14:15:41.573Z,6.72
2022-09-13T14:18:39.912Z,5.15
2022-09-13T14:21:22.041Z,7.57
2022-09-13T14:23:51.976Z,5.18
2022-09-13T14:26:20.161Z,6.43
2022-09-13T14:28:48.318Z,12.40
2022-09-13T14:31:21.359Z,6.93
2022-09-13T14:33:49.709Z,6.82
2022-09-13T14:36:20.931Z,6.13
2022-09-13T14:38:55.228Z,6.60
2022-09-13T14:41:32.199Z,5.88
2022-09-13T14:44:23.666Z,6.63
2022-09-13T14:46:59.271Z,6.57
2022-09-13T14:49:33.014Z,9.65
2022-09-13T14:52:05.408Z,6.45
2022-09-13T14:54:39.713Z,7.72
2022-09-13T14:57:16.305Z,5.80
2022-09-13T14:59:48.107Z,7.05
2022-09-13T15:02:20.944Z,5.68
2022-09-13T15:04:53.053Z,6.78
2022-09-13T15:07:24.771Z,6.47
2022-09-13T15:10:00.699Z,6.05
2022-09-13T15:12:30.055Z,6.30
2022-09-13T15:15:27.213Z,6.78
2022-09-13T15:17:58.137Z,6.82
2022-09-13T15:20:29.417Z,5.18
2022-09-13T15:22:58.432Z,7.90
2022-09-13T15:25:29.653Z,5.45
2022-09-13T15:27:58.823Z,6.95
2022-09-13T15:30:29.859Z,7.60
2022-09-13T15:33:18.586Z,5.90
2022-09-13T15:35:48.536Z,8.38
2022-09-13T15:38:20.511Z,8.23
2022-09-13T15:41:03.655Z,7.20
2022-09-13T15:43:32.399Z,10.68
2022-09-13T15:46:01.893Z,7.82
2022-09-13T15:51:10.271Z,7.25
2022-09-13T15:53:40.177Z,10.48
2022-09-13T15:56:13.984Z,9.20
2022-09-13T15:58:42.448Z,9.25
2022-09-13T16:01:13.254Z,8.90
2022-09-13T16:03:41.953Z,9.07
2022-09-13T16:06:10.967Z,8.82
2022-09-13T16:08:39.865Z,10.02
2022-09-13T16:11:09.455Z,11.85
2022-09-13T16:13:37.745Z,10.05
2022-09-13T16:16:06.161Z,7.97
2022-09-13T16:18:34.387Z,7.45
2022-09-13T16:21:02.831Z,6.68
2022-09-13T16:23:31.046Z,9.07
2022-09-13T16:26:01.160Z,10.45
2022-09-13T16:28:31.155Z,9.48
2022-09-13T16:30:59.617Z,12.05
2022-09-13T16:33:28.015Z,9.93
2022-09-13T16:36:00.220Z,13.13
2022-09-13T16:38:30.258Z,11.63
2022-09-13T16:40:58.562Z,10.60
2022-09-13T16:43:26.653Z,11.80
2022-09-13T16:45:56.136Z,12.25
2022-09-13T16:48:24.591Z,12.45
2022-09-13T16:50:52.732Z,11.38
2022-09-13T16:53:20.837Z,11.82
2022-09-13T16:55:49.138Z,11.73
2022-09-13T16:58:17.216Z,10.82
2022-09-13T17:00:45.420Z,10.63
2022-09-13T17:03:15.267Z,10.75
2022-09-13T17:05:43.393Z,9.25
2022-09-13T17:08:11.458Z,11.70
2022-09-13T17:10:39.861Z,9.35
2022-09-13T17:13:07.885Z,11.18
2022-09-13T17:15:40.066Z,12.18
2022-09-13T17:18:09.025Z,13.15
2022-09-13T17:20:44.915Z,10.20
2022-09-13T17:23:13.329Z,12.48
2022-09-13T17:25:43.617Z,12.15
2022-09-13T17:28:11.836Z,9.95
2022-09-13T17:30:40.919Z,13.70
2022-09-13T17:33:09.213Z,10.75
2022-09-13T17:35:38.700Z,11.13
2022-09-13T17:38:07.135Z,9.07
2022-09-13T17:40:35.475Z,11.88
2022-09-13T17:43:03.878Z,11.32
2022-09-13T17:45:32.750Z,14.55
2022-09-13T17:48:00.966Z,11.60
2022-09-13T17:50:29.053Z,10.88
2022-09-13T17:52:59.813Z,12.68
2022-09-13T17:55:27.882Z,16.02
2022-09-13T17:57:56.103Z,12.85
2022-09-13T18:00:24.742Z,10.93
2022-09-13T18:02:53.006Z,12.82
2022-09-13T18:05:21.203Z,11.02
2022-09-13T18:07:49.570Z,10.57
2022-09-13T18:10:45.182Z,12.10
2022-09-13T18:13:07.794Z,11.77
2022-09-13T18:15:36.017Z,14.13
2022-09-13T18:18:04.218Z,16.15
2022-09-13T18:20:33.319Z,12.57
2022-09-13T18:23:03.450Z,13.93
2022-09-13T18:25:33.338Z,15.65
2022-09-13T18:28:02.025Z,14.75
2022-09-13T18:30:30.205Z,12.90
2022-09-13T18:32:58.361Z,15.85
2022-09-13T18:35:27.008Z,13.52
2022-09-13T18:37:55.078Z,10.80
2022-09-13T18:40:24.827Z,8.63
2022-09-13T18:42:55.895Z,10.05
2022-09-13T18:45:24.473Z,8.15
2022-09-13T18:47:52.719Z,7.70
2022-09-13T18:50:27.111Z,6.13
2022-09-13T18:52:56.087Z,6.82
2022-09-13T18:55:24.692Z,12.38
2022-09-13T18:57:54.907Z,8.82
2022-09-13T19:00:24.271Z,8.32
2022-09-13T19:03:11.190Z,12.55
2022-09-13T19:05:40.729Z,11.00
2022-09-13T19:08:10.722Z,9.27
2022-09-13T19:10:40.577Z,10.15
2022-09-13T19:13:12.445Z,14.98
2022-09-13T19:15:41.274Z,11.88
2022-09-13T19:18:10.355Z,9.65
2022-09-13T19:20:39.183Z,9.77
2022-09-13T19:23:09.785Z,10.13
2022-09-13T19:25:41.699Z,11.55
2022-09-13T19:28:13.277Z,8.93
2022-09-13T19:30:41.742Z,12.95
2022-09-13T19:33:10.956Z,11.25
2022-09-13T19:35:40.175Z,9.73
2022-09-13T19:38:08.872Z,9.77
2022-09-13T19:40:40.667Z,10.35
2022-09-13T19:43:10.630Z,11.43
2022-09-13T19:45:40.977Z,12.10
2022-09-13T19:48:37.646Z,13.48
2022-09-13T19:51:04.319Z,10.15
2022-09-13T19:53:53.339Z,8.80
2022-09-13T19:56:24.933Z,7.30
2022-09-13T19:58:57.447Z,12.55
2022-09-13T20:01:29.622Z,11.48
2022-09-13T20:04:00.273Z,12.13
2022-09-13T20:06:30.628Z,10.63
2022-09-13T20:09:01.319Z,11.90
2022-09-13T20:11:29.653Z,12.98
2022-09-13T20:14:01.477Z,10.57
2022-09-13T20:16:39.977Z,11.65
2022-09-13T20:19:36.512Z,11.27
2022-09-13T20:24:33.473Z,8.30
2022-09-13T20:27:02.584Z,11.30
2022-09-13T20:29:31.664Z,9.35
2022-09-13T20:32:11.448Z,8.75
2022-09-13T20:35:11.920Z,11.73
2022-09-13T20:37:47.371Z,11.73
2022-09-13T20:42:53.588Z,10.00
2022-09-13T20:47:59.971Z,8.20
2022-09-13T20:50:38.428Z,7.45
2022-09-13T20:53:46.501Z,7.88
2022-09-13T20:56:14.949Z,8.48
2022-09-13T20:58:45.496Z,9.50
2022-09-13T21:01:23.780Z,9.50
2022-09-13T21:03:55.239Z,7.95
2022-09-13T21:06:25.858Z,11.70
2022-09-13T21:08:54.496Z,9.00
2022-09-13T21:11:25.677Z,6.57
2022-09-13T21:13:56.457Z,5.90
2022-09-13T21:16:26.854Z,7.80
2022-09-13T21:18:57.436Z,6.10
2022-09-13T21:21:29.630Z,8.15
2022-09-13T21:23:58.671Z,8.77
2022-09-13T21:26:28.686Z,6.50
2022-09-13T21:28:58.701Z,7.68
2022-09-13T21:31:29.378Z,7.70
2022-09-13T21:34:01.608Z,8.25
2022-09-13T21:36:31.097Z,6.53
2022-09-13T21:38:59.536Z,7.93
2022-09-13T21:41:28.267Z,8.80
2022-09-13T21:43:56.809Z,12.45
2022-09-13T21:46:27.150Z,6.43
2022-09-13T21:48:59.469Z,8.57
2022-09-13T21:51:30.256Z,11.68
2022-09-13T21:54:01.112Z,6.75
2022-09-13T21:56:31.999Z,8.85
2022-09-13T21:59:01.940Z,8.40
2022-09-13T22:01:32.526Z,5.97
2022-09-13T22:04:03.834Z,7.85
2022-09-13T22:06:34.645Z,6.05
2022-09-13T22:09:05.408Z,4.68
2022-09-13T22:11:35.845Z,5.90
2022-09-13T22:14:04.085Z,7.05
2022-09-13T22:16:34.281Z,6.75
2022-09-13T22:19:08.911Z,8.45
2022-09-13T22:21:40.162Z,4.95
2022-09-13T22:24:10.429Z,10.20
2022-09-13T22:26:40.866Z,7.00
2022-09-13T22:29:10.857Z,8.95
2022-09-13T22:31:41.362Z,8.18
2022-09-13T22:34:13.894Z,6.60
2022-09-13T22:36:43.171Z,5.88
2022-09-13T22:39:13.240Z,9.35
2022-09-13T22:41:42.078Z,8.90
2022-09-13T22:44:11.330Z,8.15
2022-09-13T22:46:41.537Z,5.03
2022-09-13T22:49:13.584Z,9.10
2022-09-13T22:51:45.163Z,7.28
2022-09-13T22:54:13.974Z,7.95
2022-09-13T22:56:42.931Z,9.90
2022-09-13T22:59:14.537Z,10.60
2022-09-13T23:01:43.529Z,10.55
2022-09-13T23:06:44.392Z,9.85
2022-09-13T23:09:15.525Z,6.70
2022-09-13T23:11:43.714Z,7.80
2022-09-13T23:14:14.786Z,4.15
2022-09-13T23:16:46.032Z,9.07
2022-09-13T23:19:21.286Z,5.97
2022-09-13T23:21:50.081Z,5.90
2022-09-13T23:24:19.746Z,8.63
2022-09-13T23:26:48.452Z,7.00
2022-09-13T23:29:21.254Z,3.42
2022-09-13T23:31:50.696Z,4.22
2022-09-13T23:34:21.029Z,4.70
2022-09-13T23:36:49.217Z,6.22
2022-09-13T23:39:19.494Z,3.22
2022-09-13T23:41:49.634Z,9.32
2022-09-13T23:44:18.079Z,9.23
2022-09-13T23:46:46.628Z,4.07
2022-09-13T23:49:15.778Z,6.50
2022-09-13T23:51:45.764Z,7.47
2022-09-13T23:54:16.515Z,7.53
2022-09-13T23:56:45.878Z,5.95
2022-09-13T23:59:14.783Z,4.68
